sensor_id;sensor_type;location;lat;lon;timestamp;pressure;altitude;pressure_sealevel;temperature;humidity
34241;BME280;20503;50.200;19.508;2023-04-25T00:01:32;100391.02;;;10.23;100.00
34241;BME280;20503;50.200;19.508;2023-04-25T00:06:40;100383.41;;;10.31;100.00
34241;BME280;20503;50.200;19.508;2023-04-25T00:11:47;100381.13;;;10.28;100.00
34241;BME280;20503;50.200;19.508;2023-04-25T00:16:55;100390.59;;;10.26;100.00
34241;BME280;20503;50.200;19.508;2023-04-25T00:22:02;100386.40;;;10.30;100.00
34241;BME280;20503;50.200;19.508;2023-04-25T00:27:11;100385.12;;;10.26;100.00
34241;BME280;20503;50.200;19.508;2023-04-25T00:32:17;100385.71;;;10.34;100.00
34241;BME280;20503;50.200;19.508;2023-04-25T00:37:25;100388.69;;;10.33;100.00
34241;BME280;20503;50.200;19.508;2023-04-25T00:42:32;100394.18;;;10.26;100.00
34241;BME280;20503;50.200;19.508;2023-04-25T00:47:41;100389.30;;;10.35;100.00
34241;BME280;20503;50.200;19.508;2023-04-25T00:52:47;100390.56;;;10.32;100.00
34241;BME280;20503;50.200;19.508;2023-04-25T00:57:55;100384.08;;;10.20;100.00
34241;BME280;20503;50.200;19.508;2023-04-25T01:03:03;100393.99;;;10.21;100.00
34241;BME280;20503;50.200;19.508;2023-04-25T01:08:10;100397.73;;;10.27;100.00
34241;BME280;20503;50.200;19.508;2023-04-25T01:13:17;100395.22;;;10.32;100.00
34241;BME280;20503;50.200;19.508;2023-04-25T01:18:25;100390.56;;;10.32;100.00
34241;BME280;20503;50.200;19.508;2023-04-25T01:23:32;100397.27;;;10.36;100.00
34241;BME280;20503;50.200;19.508;2023-04-25T01:28:40;100390.20;;;10.22;100.00
34241;BME280;20503;50.200;19.508;2023-04-25T01:33:48;100380.11;;;10.16;100.00
34241;BME280;20503;50.200;19.508;2023-04-25T01:38:55;100381.34;;;10.20;100.00
34241;BME280;20503;50.200;19.508;2023-04-25T01:44:04;100381.59;;;10.19;100.00
34241;BME280;20503;50.200;19.508;2023-04-25T01:49:10;100389.38;;;10.15;100.00
34241;BME280;20503;50.200;19.508;2023-04-25T01:54:18;100392.34;;;10.14;100.00
34241;BME280;20503;50.200;19.508;2023-04-25T01:59:25;100386.45;;;10.10;100.00
34241;BME280;20503;50.200;19.508;2023-04-25T02:04:32;100383.11;;;10.02;100.00
34241;BME280;20503;50.200;19.508;2023-04-25T02:09:41;100384.57;;;9.98;100.00
34241;BME280;20503;50.200;19.508;2023-04-25T02:14:48;100389.38;;;9.96;100.00
34241;BME280;20503;50.200;19.508;2023-04-25T02:19:56;100389.63;;;9.81;100.00
34241;BME280;20503;50.200;19.508;2023-04-25T02:25:04;100397.84;;;9.81;100.00
34241;BME280;20503;50.200;19.508;2023-04-25T02:30:12;100405.84;;;9.76;100.00
34241;BME280;20503;50.200;19.508;2023-04-25T02:35:19;100393.23;;;9.75;100.00
34241;BME280;20503;50.200;19.508;2023-04-25T02:40:27;100404.59;;;9.72;100.00
34241;BME280;20503;50.200;19.508;2023-04-25T02:45:35;100403.98;;;9.57;100.00
34241;BME280;20503;50.200;19.508;2023-04-25T02:50:44;100401.88;;;9.59;100.00
34241;BME280;20503;50.200;19.508;2023-04-25T02:55:50;100402.70;;;9.53;100.00
34241;BME280;20503;50.200;19.508;2023-04-25T03:00:58;100407.10;;;9.54;100.00
34241;BME280;20503;50.200;19.508;2023-04-25T03:06:06;100410.49;;;9.50;100.00
34241;BME280;20503;50.200;19.508;2023-04-25T03:11:14;100407.14;;;9.48;100.00
34241;BME280;20503;50.200;19.508;2023-04-25T03:16:22;100410.07;;;9.46;100.00
34241;BME280;20503;50.200;19.508;2023-04-25T03:21:31;100410.48;;;9.30;100.00
34241;BME280;20503;50.200;19.508;2023-04-25T03:26:37;100413.02;;;9.26;100.00
34241;BME280;20503;50.200;19.508;2023-04-25T03:31:45;100419.53;;;9.31;100.00
34241;BME280;20503;50.200;19.508;2023-04-25T03:36:53;100423.72;;;9.40;100.00
34241;BME280;20503;50.200;19.508;2023-04-25T03:42:01;100420.55;;;9.30;100.00
34241;BME280;20503;50.200;19.508;2023-04-25T03:47:08;100432.74;;;9.21;100.00
34241;BME280;20503;50.200;19.508;2023-04-25T03:52:16;100437.12;;;9.03;100.00
34241;BME280;20503;50.200;19.508;2023-04-25T03:57:24;100441.98;;;9.14;100.00
34241;BME280;20503;50.200;19.508;2023-04-25T04:02:32;100443.20;;;9.05;100.00
34241;BME280;20503;50.200;19.508;2023-04-25T04:07:39;100444.07;;;9.12;100.00
34241;BME280;20503;50.200;19.508;2023-04-25T04:12:48;100458.36;;;9.14;100.00
34241;BME280;20503;50.200;19.508;2023-04-25T04:17:55;100457.50;;;9.13;100.00
34241;BME280;20503;50.200;19.508;2023-04-25T04:23:03;100471.38;;;9.12;100.00
34241;BME280;20503;50.200;19.508;2023-04-25T04:28:11;100480.55;;;8.91;100.00
34241;BME280;20503;50.200;19.508;2023-04-25T04:33:19;100478.06;;;9.03;100.00
34241;BME280;20503;50.200;19.508;2023-04-25T04:38:27;100483.70;;;8.88;100.00
34241;BME280;20503;50.200;19.508;2023-04-25T04:43:35;100483.23;;;8.78;100.00
34241;BME280;20503;50.200;19.508;2023-04-25T04:48:44;100483.62;;;8.69;100.00
34241;BME280;20503;50.200;19.508;2023-04-25T04:53:50;100488.27;;;8.75;100.00
34241;BME280;20503;50.200;19.508;2023-04-25T04:58:58;100481.30;;;8.66;100.00
34241;BME280;20503;50.200;19.508;2023-04-25T05:04:05;100484.67;;;8.68;100.00
34241;BME280;20503;50.200;19.508;2023-04-25T05:09:12;100484.50;;;8.76;100.00
34241;BME280;20503;50.200;19.508;2023-04-25T05:14:20;100478.19;;;8.75;100.00
34241;BME280;20503;50.200;19.508;2023-04-25T05:19:28;100487.67;;;8.86;100.00
34241;BME280;20503;50.200;19.508;2023-04-25T05:24:36;100490.98;;;8.68;100.00
34241;BME280;20503;50.200;19.508;2023-04-25T05:29:44;100491.00;;;8.75;100.00
34241;BME280;20503;50.200;19.508;2023-04-25T05:34:51;100490.20;;;8.87;100.00
34241;BME280;20503;50.200;19.508;2023-04-25T05:40:00;100502.22;;;9.06;100.00
34241;BME280;20503;50.200;19.508;2023-04-25T05:45:08;100500.13;;;9.14;100.00
34241;BME280;20503;50.200;19.508;2023-04-25T05:50:15;100506.91;;;9.25;100.00
34241;BME280;20503;50.200;19.508;2023-04-25T05:55:22;100488.83;;;9.17;100.00
34241;BME280;20503;50.200;19.508;2023-04-25T06:00:29;100509.22;;;9.28;100.00
34241;BME280;20503;50.200;19.508;2023-04-25T06:05:38;100522.60;;;9.03;100.00
34241;BME280;20503;50.200;19.508;2023-04-25T06:10:45;100532.25;;;8.99;100.00
34241;BME280;20503;50.200;19.508;2023-04-25T06:15:53;100525.11;;;8.98;100.00
34241;BME280;20503;50.200;19.508;2023-04-25T06:21:02;100526.79;;;8.99;100.00
34241;BME280;20503;50.200;19.508;2023-04-25T06:26:08;100523.89;;;9.14;100.00
34241;BME280;20503;50.200;19.508;2023-04-25T06:31:16;100526.64;;;9.20;100.00
34241;BME280;20503;50.200;19.508;2023-04-25T06:36:23;100518.04;;;9.23;100.00
34241;BME280;20503;50.200;19.508;2023-04-25T06:41:31;100528.59;;;9.45;100.00
34241;BME280;20503;50.200;19.508;2023-04-25T06:46:38;100537.20;;;9.42;100.00
34241;BME280;20503;50.200;19.508;2023-04-25T06:51:47;100539.32;;;9.60;100.00
34241;BME280;20503;50.200;19.508;2023-04-25T06:56:53;100526.12;;;9.83;100.00
34241;BME280;20503;50.200;19.508;2023-04-25T07:02:00;100522.96;;;9.92;100.00
34241;BME280;20503;50.200;19.508;2023-04-25T07:07:08;100521.05;;;9.86;100.00
34241;BME280;20503;50.200;19.508;2023-04-25T07:12:16;100528.86;;;10.02;100.00
34241;BME280;20503;50.200;19.508;2023-04-25T07:17:23;100527.80;;;10.16;100.00
34241;BME280;20503;50.200;19.508;2023-04-25T07:22:30;100527.36;;;9.80;100.00
34241;BME280;20503;50.200;19.508;2023-04-25T07:27:38;100537.05;;;9.89;100.00
34241;BME280;20503;50.200;19.508;2023-04-25T07:32:46;100538.93;;;9.82;100.00
34241;BME280;20503;50.200;19.508;2023-04-25T07:37:54;100537.06;;;10.09;100.00
34241;BME280;20503;50.200;19.508;2023-04-25T07:43:01;100543.34;;;9.83;100.00
34241;BME280;20503;50.200;19.508;2023-04-25T07:48:09;100536.17;;;9.76;100.00
34241;BME280;20503;50.200;19.508;2023-04-25T07:53:16;100543.58;;;10.21;100.00
34241;BME280;20503;50.200;19.508;2023-04-25T07:58:25;100538.53;;;10.18;100.00
34241;BME280;20503;50.200;19.508;2023-04-25T08:03:31;100524.41;;;10.40;100.00
34241;BME280;20503;50.200;19.508;2023-04-25T08:08:39;100541.51;;;10.86;100.00
34241;BME280;20503;50.200;19.508;2023-04-25T08:13:46;100540.97;;;10.71;100.00
34241;BME280;20503;50.200;19.508;2023-04-25T08:18:54;100542.39;;;10.80;100.00
34241;BME280;20503;50.200;19.508;2023-04-25T08:24:01;100545.84;;;11.13;100.00
34241;BME280;20503;50.200;19.508;2023-04-25T08:29:09;100550.92;;;11.47;100.00
34241;BME280;20503;50.200;19.508;2023-04-25T08:34:16;100540.86;;;10.97;100.00
34241;BME280;20503;50.200;19.508;2023-04-25T08:39:24;100552.23;;;11.75;100.00
34241;BME280;20503;50.200;19.508;2023-04-25T08:44:33;100543.28;;;11.18;100.00
34241;BME280;20503;50.200;19.508;2023-04-25T08:49:40;100552.47;;;10.86;100.00
34241;BME280;20503;50.200;19.508;2023-04-25T08:54:48;100555.11;;;10.55;100.00
34241;BME280;20503;50.200;19.508;2023-04-25T08:59:55;100563.11;;;10.37;100.00
34241;BME280;20503;50.200;19.508;2023-04-25T09:05:02;100562.02;;;10.64;100.00
34241;BME280;20503;50.200;19.508;2023-04-25T09:10:09;100558.04;;;10.60;100.00
34241;BME280;20503;50.200;19.508;2023-04-25T09:15:16;100560.90;;;10.91;100.00
34241;BME280;20503;50.200;19.508;2023-04-25T09:20:24;100565.04;;;11.07;100.00
34241;BME280;20503;50.200;19.508;2023-04-25T09:25:38;100557.91;;;10.99;100.00
34241;BME280;20503;50.200;19.508;2023-04-25T09:30:46;100563.34;;;11.12;100.00
34241;BME280;20503;50.200;19.508;2023-04-25T09:35:47;100562.81;;;11.34;100.00
34241;BME280;20503;50.200;19.508;2023-04-25T09:40:56;100558.50;;;11.58;100.00
34241;BME280;20503;50.200;19.508;2023-04-25T09:46:01;100559.97;;;11.85;100.00
34241;BME280;20503;50.200;19.508;2023-04-25T09:51:10;100557.05;;;12.53;100.00
34241;BME280;20503;50.200;19.508;2023-04-25T09:56:16;100561.29;;;12.07;100.00
34241;BME280;20503;50.200;19.508;2023-04-25T10:01:26;100558.52;;;12.56;100.00
34241;BME280;20503;50.200;19.508;2023-04-25T10:06:34;100566.48;;;12.39;100.00
34241;BME280;20503;50.200;19.508;2023-04-25T10:11:40;100564.55;;;12.22;100.00
34241;BME280;20503;50.200;19.508;2023-04-25T10:16:48;100559.07;;;12.22;100.00
34241;BME280;20503;50.200;19.508;2023-04-25T10:22:07;100558.20;;;11.97;100.00
34241;BME280;20503;50.200;19.508;2023-04-25T10:27:09;100548.34;;;11.89;100.00
34241;BME280;20503;50.200;19.508;2023-04-25T10:32:12;100556.52;;;11.96;100.00
34241;BME280;20503;50.200;19.508;2023-04-25T10:37:20;100550.76;;;12.71;100.00
34241;BME280;20503;50.200;19.508;2023-04-25T10:42:29;100536.52;;;12.98;100.00
34241;BME280;20503;50.200;19.508;2023-04-25T10:47:38;100539.05;;;12.57;100.00
34241;BME280;20503;50.200;19.508;2023-04-25T10:52:45;100531.68;;;12.76;100.00
34241;BME280;20503;50.200;19.508;2023-04-25T10:57:53;100540.59;;;12.71;100.00
34241;BME280;20503;50.200;19.508;2023-04-25T11:03:02;100541.13;;;12.62;100.00
34241;BME280;20503;50.200;19.508;2023-04-25T11:08:11;100538.82;;;12.41;100.00
34241;BME280;20503;50.200;19.508;2023-04-25T11:13:16;100531.82;;;12.81;100.00
34241;BME280;20503;50.200;19.508;2023-04-25T11:18:26;100532.62;;;13.06;75.28
34241;BME280;20503;50.200;19.508;2023-04-25T11:23:33;100533.28;;;12.83;76.10
34241;BME280;20503;50.200;19.508;2023-04-25T11:28:45;100533.79;;;12.38;76.11
34241;BME280;20503;50.200;19.508;2023-04-25T11:33:49;100542.09;;;12.31;74.93
34241;BME280;20503;50.200;19.508;2023-04-25T11:38:57;100539.16;;;12.26;74.67
34241;BME280;20503;50.200;19.508;2023-04-25T11:44:05;100545.66;;;12.32;73.39
34241;BME280;20503;50.200;19.508;2023-04-25T11:49:14;100542.11;;;12.49;73.93
34241;BME280;20503;50.200;19.508;2023-04-25T11:54:22;100546.95;;;12.72;74.76
34241;BME280;20503;50.200;19.508;2023-04-25T11:59:30;100548.45;;;12.68;72.59
34241;BME280;20503;50.200;19.508;2023-04-25T12:04:40;100550.41;;;12.43;72.95
34241;BME280;20503;50.200;19.508;2023-04-25T12:09:51;100543.36;;;12.29;73.16
34241;BME280;20503;50.200;19.508;2023-04-25T12:14:54;100537.42;;;12.32;75.82
34241;BME280;20503;50.200;19.508;2023-04-25T12:20:08;100540.17;;;12.07;74.39
34241;BME280;20503;50.200;19.508;2023-04-25T12:25:59;100536.60;;;12.07;76.70
34241;BME280;20503;50.200;19.508;2023-04-25T12:30:18;100537.13;;;11.66;76.05
34241;BME280;20503;50.200;19.508;2023-04-25T12:35:26;100544.05;;;11.69;81.01
34241;BME280;20503;50.200;19.508;2023-04-25T12:40:34;100540.33;;;11.63;77.98
34241;BME280;20503;50.200;19.508;2023-04-25T12:45:41;100540.30;;;11.94;73.97
34241;BME280;20503;50.200;19.508;2023-04-25T12:50:49;100549.15;;;11.96;74.65
34241;BME280;20503;50.200;19.508;2023-04-25T12:55:56;100549.77;;;11.67;70.56
34241;BME280;20503;50.200;19.508;2023-04-25T13:01:03;100542.04;;;11.58;69.55
34241;BME280;20503;50.200;19.508;2023-04-25T13:06:11;100544.89;;;11.32;71.35
34241;BME280;20503;50.200;19.508;2023-04-25T13:11:18;100545.03;;;11.43;70.32
34241;BME280;20503;50.200;19.508;2023-04-25T13:16:25;100543.35;;;11.42;70.40
34241;BME280;20503;50.200;19.508;2023-04-25T13:21:32;100557.44;;;11.09;71.06
34241;BME280;20503;50.200;19.508;2023-04-25T13:26:40;100554.41;;;11.29;71.53
34241;BME280;20503;50.200;19.508;2023-04-25T13:31:48;100534.65;;;11.21;72.30
34241;BME280;20503;50.200;19.508;2023-04-25T13:36:54;100556.09;;;11.30;71.45
34241;BME280;20503;50.200;19.508;2023-04-25T13:42:02;100554.73;;;11.46;72.19
34241;BME280;20503;50.200;19.508;2023-04-25T13:47:09;100555.09;;;11.62;71.03
34241;BME280;20503;50.200;19.508;2023-04-25T13:52:17;100549.98;;;11.66;71.36
34241;BME280;20503;50.200;19.508;2023-04-25T13:57:25;100555.09;;;11.62;70.93
34241;BME280;20503;50.200;19.508;2023-04-25T14:02:32;100558.00;;;11.67;69.96
34241;BME280;20503;50.200;19.508;2023-04-25T14:07:39;100561.77;;;11.73;69.56
34241;BME280;20503;50.200;19.508;2023-04-25T14:12:47;100567.70;;;11.70;69.30
34241;BME280;20503;50.200;19.508;2023-04-25T14:17:54;100561.73;;;11.79;69.28
34241;BME280;20503;50.200;19.508;2023-04-25T14:23:02;100562.26;;;11.63;68.48
34241;BME280;20503;50.200;19.508;2023-04-25T14:28:10;100578.91;;;11.62;70.32
34241;BME280;20503;50.200;19.508;2023-04-25T14:33:17;100568.64;;;11.44;70.89
34241;BME280;20503;50.200;19.508;2023-04-25T14:38:25;100574.21;;;11.31;71.22
34241;BME280;20503;50.200;19.508;2023-04-25T14:43:33;100561.36;;;11.69;71.97
34241;BME280;20503;50.200;19.508;2023-04-25T14:48:39;100580.59;;;11.63;70.11
34241;BME280;20503;50.200;19.508;2023-04-25T14:53:47;100575.56;;;11.60;71.60
34241;BME280;20503;50.200;19.508;2023-04-25T14:58:54;100564.96;;;11.70;70.98
34241;BME280;20503;50.200;19.508;2023-04-25T15:04:02;100577.82;;;11.69;71.02
34241;BME280;20503;50.200;19.508;2023-04-25T15:09:11;100583.95;;;11.65;70.94
34241;BME280;20503;50.200;19.508;2023-04-25T15:14:18;100591.15;;;11.59;71.44
34241;BME280;20503;50.200;19.508;2023-04-25T15:19:26;100580.95;;;11.29;71.07
34241;BME280;20503;50.200;19.508;2023-04-25T15:24:33;100595.54;;;11.23;71.82
34241;BME280;20503;50.200;19.508;2023-04-25T15:29:40;100589.77;;;11.37;71.97
34241;BME280;20503;50.200;19.508;2023-04-25T15:34:47;100569.18;;;11.97;71.77
34241;BME280;20503;50.200;19.508;2023-04-25T15:40:08;100576.91;;;12.31;70.63
34241;BME280;20503;50.200;19.508;2023-04-25T15:45:10;100560.54;;;12.42;69.67
34241;BME280;20503;50.200;19.508;2023-04-25T15:50:12;100569.46;;;11.89;70.09
34241;BME280;20503;50.200;19.508;2023-04-25T15:55:18;100572.73;;;11.73;73.24
34241;BME280;20503;50.200;19.508;2023-04-25T16:00:25;100573.29;;;11.44;71.91
34241;BME280;20503;50.200;19.508;2023-04-25T16:05:33;100574.29;;;11.12;71.93
34241;BME280;20503;50.200;19.508;2023-04-25T16:10:41;100578.09;;;11.11;72.80
34241;BME280;20503;50.200;19.508;2023-04-25T16:15:48;100571.81;;;11.04;74.84
34241;BME280;20503;50.200;19.508;2023-04-25T16:20:56;100580.06;;;10.91;74.71
34241;BME280;20503;50.200;19.508;2023-04-25T16:26:04;100577.95;;;10.93;74.36
34241;BME280;20503;50.200;19.508;2023-04-25T16:31:11;100586.60;;;10.90;73.61
34241;BME280;20503;50.200;19.508;2023-04-25T16:36:18;100591.66;;;10.87;74.47
34241;BME280;20503;50.200;19.508;2023-04-25T16:41:27;100591.17;;;11.09;74.72
34241;BME280;20503;50.200;19.508;2023-04-25T16:46:33;100590.09;;;11.17;74.33
34241;BME280;20503;50.200;19.508;2023-04-25T16:55:49;100604.15;;;10.50;74.53
34241;BME280;20503;50.200;19.508;2023-04-25T17:00:57;100611.12;;;10.40;75.63
34241;BME280;20503;50.200;19.508;2023-04-25T17:06:04;100603.95;;;10.26;76.49
34241;BME280;20503;50.200;19.508;2023-04-25T17:11:12;100603.55;;;10.09;77.12
34241;BME280;20503;50.200;19.508;2023-04-25T17:16:21;100607.91;;;9.91;78.66
34241;BME280;20503;50.200;19.508;2023-04-25T17:21:27;100610.42;;;9.79;79.18
34241;BME280;20503;50.200;19.508;2023-04-25T17:26:36;100615.23;;;9.71;79.89
34241;BME280;20503;50.200;19.508;2023-04-25T17:31:43;100610.17;;;9.61;80.32
34241;BME280;20503;50.200;19.508;2023-04-25T17:36:51;100625.45;;;9.43;80.19
34241;BME280;20503;50.200;19.508;2023-04-25T17:41:59;100627.49;;;9.28;81.16
34241;BME280;20503;50.200;19.508;2023-04-25T17:47:06;100638.98;;;9.11;82.65
34241;BME280;20503;50.200;19.508;2023-04-25T17:52:14;100645.78;;;8.87;84.13
34241;BME280;20503;50.200;19.508;2023-04-25T17:57:22;100642.13;;;8.74;85.32
34241;BME280;20503;50.200;19.508;2023-04-25T18:02:29;100642.23;;;8.59;86.35
34241;BME280;20503;50.200;19.508;2023-04-25T18:07:37;100642.23;;;8.32;87.47
34241;BME280;20503;50.200;19.508;2023-04-25T18:12:46;100662.30;;;8.24;88.10
34241;BME280;20503;50.200;19.508;2023-04-25T18:17:53;100672.01;;;7.91;89.61
34241;BME280;20503;50.200;19.508;2023-04-25T18:23:01;100679.14;;;7.71;93.33
34241;BME280;20503;50.200;19.508;2023-04-25T18:28:09;100679.03;;;7.44;97.24
34241;BME280;20503;50.200;19.508;2023-04-25T18:33:17;100690.98;;;7.14;99.67
34241;BME280;20503;50.200;19.508;2023-04-25T18:38:24;100698.58;;;7.04;100.00
34241;BME280;20503;50.200;19.508;2023-04-25T18:43:33;100705.71;;;6.91;100.00
34241;BME280;20503;50.200;19.508;2023-04-25T18:48:40;100713.60;;;6.86;100.00
34241;BME280;20503;50.200;19.508;2023-04-25T18:53:48;100727.72;;;6.67;100.00
34241;BME280;20503;50.200;19.508;2023-04-25T18:58:55;100737.83;;;6.58;100.00
34241;BME280;20503;50.200;19.508;2023-04-25T19:04:03;100742.03;;;6.46;100.00
34241;BME280;20503;50.200;19.508;2023-04-25T19:09:11;100746.37;;;6.33;100.00
34241;BME280;20503;50.200;19.508;2023-04-25T19:14:18;100752.66;;;6.33;100.00
34241;BME280;20503;50.200;19.508;2023-04-25T19:19:26;100747.12;;;6.27;100.00
34241;BME280;20503;50.200;19.508;2023-04-25T19:24:34;100747.89;;;6.35;100.00
34241;BME280;20503;50.200;19.508;2023-04-25T19:29:42;100748.56;;;6.15;100.00
34241;BME280;20503;50.200;19.508;2023-04-25T19:34:50;100771.89;;;5.79;100.00
34241;BME280;20503;50.200;19.508;2023-04-25T19:39:58;100767.03;;;5.58;100.00
34241;BME280;20503;50.200;19.508;2023-04-25T19:45:07;100761.88;;;5.41;100.00
34241;BME280;20503;50.200;19.508;2023-04-25T19:50:14;100766.70;;;5.61;100.00
34241;BME280;20503;50.200;19.508;2023-04-25T19:55:22;100764.10;;;5.68;100.00
34241;BME280;20503;50.200;19.508;2023-04-25T20:00:30;100774.30;;;5.66;100.00
34241;BME280;20503;50.200;19.508;2023-04-25T20:05:38;100765.02;;;5.60;100.00
34241;BME280;20503;50.200;19.508;2023-04-25T20:10:46;100768.55;;;5.61;100.00
34241;BME280;20503;50.200;19.508;2023-04-25T20:15:54;100772.67;;;5.49;100.00
34241;BME280;20503;50.200;19.508;2023-04-25T20:21:02;100773.19;;;5.52;100.00
34241;BME280;20503;50.200;19.508;2023-04-25T20:26:12;100774.06;;;5.75;100.00
34241;BME280;20503;50.200;19.508;2023-04-25T20:31:18;100780.94;;;6.02;100.00
34241;BME280;20503;50.200;19.508;2023-04-25T20:36:26;100772.19;;;6.14;100.00
34241;BME280;20503;50.200;19.508;2023-04-25T20:41:33;100784.09;;;6.36;100.00
34241;BME280;20503;50.200;19.508;2023-04-25T20:46:41;100792.12;;;6.52;100.00
34241;BME280;20503;50.200;19.508;2023-04-25T20:51:49;100792.29;;;6.50;100.00
34241;BME280;20503;50.200;19.508;2023-04-25T20:56:57;100805.50;;;6.76;100.00
34241;BME280;20503;50.200;19.508;2023-04-25T21:02:04;100805.84;;;6.95;100.00
34241;BME280;20503;50.200;19.508;2023-04-25T21:07:12;100801.91;;;7.12;100.00
34241;BME280;20503;50.200;19.508;2023-04-25T21:12:20;100803.50;;;7.21;100.00
34241;BME280;20503;50.200;19.508;2023-04-25T21:17:27;100819.66;;;7.37;100.00
34241;BME280;20503;50.200;19.508;2023-04-25T21:22:35;100823.63;;;7.35;100.00
34241;BME280;20503;50.200;19.508;2023-04-25T21:27:42;100832.24;;;7.38;100.00
34241;BME280;20503;50.200;19.508;2023-04-25T21:32:50;100827.83;;;7.37;100.00
34241;BME280;20503;50.200;19.508;2023-04-25T21:37:58;100826.42;;;7.41;100.00
34241;BME280;20503;50.200;19.508;2023-04-25T21:43:06;100833.76;;;7.40;100.00
34241;BME280;20503;50.200;19.508;2023-04-25T21:48:14;100833.94;;;7.39;100.00
34241;BME280;20503;50.200;19.508;2023-04-25T21:53:22;100841.00;;;7.34;100.00
34241;BME280;20503;50.200;19.508;2023-04-25T21:58:30;100845.69;;;7.39;100.00
34241;BME280;20503;50.200;19.508;2023-04-25T22:03:37;100849.23;;;7.40;100.00
34241;BME280;20503;50.200;19.508;2023-04-25T22:08:45;100856.02;;;7.44;100.00
34241;BME280;20503;50.200;19.508;2023-04-25T22:13:53;100858.75;;;7.44;100.00
34241;BME280;20503;50.200;19.508;2023-04-25T22:19:02;100869.64;;;7.44;100.00
34241;BME280;20503;50.200;19.508;2023-04-25T22:24:08;100880.05;;;7.40;100.00
34241;BME280;20503;50.200;19.508;2023-04-25T22:29:16;100883.42;;;7.42;100.00
34241;BME280;20503;50.200;19.508;2023-04-25T22:34:24;100884.29;;;7.43;100.00
34241;BME280;20503;50.200;19.508;2023-04-25T22:39:32;100881.57;;;7.43;100.00
34241;BME280;20503;50.200;19.508;2023-04-25T22:44:39;100877.60;;;7.45;100.00
34241;BME280;20503;50.200;19.508;2023-04-25T22:49:47;100884.29;;;7.43;100.00
34241;BME280;20503;50.200;19.508;2023-04-25T22:54:55;100896.50;;;7.47;100.00
34241;BME280;20503;50.200;19.508;2023-04-25T23:00:06;100889.05;;;7.41;100.00
34241;BME280;20503;50.200;19.508;2023-04-25T23:05:19;100887.36;;;7.40;100.00
34241;BME280;20503;50.200;19.508;2023-04-25T23:10:20;100891.00;;;7.33;100.00
34241;BME280;20503;50.200;19.508;2023-04-25T23:15:26;100892.90;;;7.32;100.00
34241;BME280;20503;50.200;19.508;2023-04-25T23:20:33;100896.37;;;7.26;100.00
34241;BME280;20503;50.200;19.508;2023-04-25T23:25:42;100894.48;;;7.27;100.00
34241;BME280;20503;50.200;19.508;2023-04-25T23:30:49;100901.70;;;7.20;99.66
34241;BME280;20503;50.200;19.508;2023-04-25T23:35:57;100914.55;;;7.11;96.13
34241;BME280;20503;50.200;19.508;2023-04-25T23:41:04;100913.88;;;7.09;95.21
34241;BME280;20503;50.200;19.508;2023-04-25T23:46:12;100916.93;;;7.06;93.89
34241;BME280;20503;50.200;19.508;2023-04-25T23:51:20;100920.89;;;7.04;92.86
34241;BME280;20503;50.200;19.508;2023-04-25T23:56:28;100929.43;;;7.01;90.90
